createdAt,value
2019-05-22T00:03:41.955Z,12.90
2019-05-22T00:10:28.963Z,12.90
2019-05-22T00:17:15.674Z,12.90
2019-05-22T00:24:01.010Z,12.90
2019-05-22T00:30:49.637Z,13.00
2019-05-22T00:37:35.296Z,12.90
2019-05-22T00:44:22.366Z,13.00
2019-05-22T00:51:16.622Z,12.90
2019-05-22T00:58:08.464Z,13.00
2019-05-22T01:04:56.795Z,13.00
2019-05-22T01:11:45.264Z,13.00
2019-05-22T01:18:32.001Z,12.90
2019-05-22T01:25:20.840Z,12.90
2019-05-22T01:32:07.699Z,12.90
2019-05-22T01:38:56.093Z,12.80
2019-05-22T01:45:42.974Z,12.80
2019-05-22T01:52:28.506Z,12.80
2019-05-22T01:59:15.340Z,12.80
2019-05-22T02:06:01.583Z,12.80
2019-05-22T02:12:52.656Z,12.70
2019-05-22T02:19:39.008Z,12.70
2019-05-22T02:26:24.318Z,12.70
2019-05-22T02:33:11.336Z,12.70
2019-05-22T02:39:58.083Z,12.80
2019-05-22T02:46:43.361Z,12.80
2019-05-22T02:53:28.663Z,12.80
2019-05-22T03:00:16.952Z,12.80
2019-05-22T03:07:02.167Z,12.70
2019-05-22T03:14:01.131Z,12.70
2019-05-22T03:20:48.294Z,12.70
2019-05-22T03:27:45.797Z,12.80
2019-05-22T03:34:31.188Z,12.70
2019-05-22T03:41:18.205Z,12.70
2019-05-22T03:48:04.662Z,12.70
2019-05-22T03:54:49.610Z,12.60
2019-05-22T04:01:35.347Z,12.60
2019-05-22T04:08:25.542Z,12.60
2019-05-22T04:15:12.658Z,12.60
2019-05-22T04:21:58.094Z,12.60
2019-05-22T04:28:48.908Z,12.60
2019-05-22T04:35:35.120Z,12.60
2019-05-22T04:42:22.200Z,12.70
2019-05-22T04:49:08.721Z,12.80
2019-05-22T04:55:54.653Z,12.90
2019-05-22T05:02:40.500Z,12.90
2019-05-22T05:09:26.193Z,13.00
2019-05-22T05:16:11.883Z,13.10
2019-05-22T05:22:57.386Z,13.20
2019-05-22T05:29:42.803Z,13.30
2019-05-22T05:36:28.220Z,13.50
2019-05-22T05:43:15.294Z,13.50
2019-05-22T05:50:01.206Z,13.60
2019-05-22T05:56:50.302Z,13.70
2019-05-22T06:03:39.569Z,13.70
2019-05-22T06:10:28.254Z,13.90
2019-05-22T06:17:36.350Z,14.00
2019-05-22T06:24:33.110Z,14.30
2019-05-22T06:31:40.307Z,14.70
2019-05-22T06:38:48.770Z,15.00
2019-05-22T06:45:35.649Z,14.80
2019-05-22T06:52:22.538Z,14.50
2019-05-22T06:59:08.029Z,14.50
2019-05-22T07:05:54.776Z,15.00
2019-05-22T07:12:39.975Z,15.40
2019-05-22T07:19:25.286Z,15.60
2019-05-22T07:26:10.526Z,15.50
2019-05-22T07:32:55.762Z,15.60
2019-05-22T07:39:41.722Z,15.80
2019-05-22T07:46:30.508Z,15.50
2019-05-22T07:53:13.647Z,16.00
2019-05-22T07:59:59.155Z,15.80
2019-05-22T08:06:45.437Z,15.80
2019-05-22T08:13:32.306Z,16.20
2019-05-22T08:20:17.659Z,17.20
2019-05-22T08:27:04.867Z,20.00
2019-05-22T08:33:50.058Z,23.50
2019-05-22T08:40:36.740Z,22.50
2019-05-22T08:47:21.989Z,20.90
2019-05-22T08:54:07.633Z,19.00
2019-05-22T09:00:53.448Z,18.20
2019-05-22T09:07:40.100Z,17.60
2019-05-22T09:14:26.171Z,17.20
2019-05-22T09:21:12.204Z,16.50
2019-05-22T09:27:58.000Z,16.30
2019-05-22T09:34:44.417Z,16.10
2019-05-22T09:41:30.105Z,16.10
2019-05-22T09:48:15.704Z,16.30
2019-05-22T09:55:00.951Z,16.60
2019-05-22T10:01:45.964Z,17.40
2019-05-22T10:08:31.610Z,17.70
2019-05-22T10:15:17.257Z,18.00
2019-05-22T10:22:03.595Z,18.00
2019-05-22T10:28:49.109Z,17.70
2019-05-22T10:35:34.385Z,17.80
2019-05-22T10:42:25.191Z,18.10
2019-05-22T10:49:10.829Z,18.20
2019-05-22T10:55:56.289Z,18.60
2019-05-22T11:02:41.814Z,18.80
2019-05-22T11:09:28.812Z,17.60
2019-05-22T11:16:14.562Z,17.60
2019-05-22T11:23:01.015Z,18.00
2019-05-22T11:29:47.185Z,19.00
2019-05-22T11:36:32.258Z,19.30
2019-05-22T11:43:17.756Z,19.60
2019-05-22T11:50:03.008Z,19.80
2019-05-22T11:56:48.088Z,18.90
2019-05-22T12:03:34.715Z,18.70
2019-05-22T12:10:21.134Z,19.10
2019-05-22T12:17:07.893Z,19.10
2019-05-22T12:23:53.544Z,19.30
2019-05-22T12:30:39.421Z,19.00
2019-05-22T12:37:25.570Z,19.40
2019-05-22T12:44:11.146Z,20.20
2019-05-22T12:50:56.647Z,20.00
2019-05-22T12:57:41.916Z,19.50
2019-05-22T13:04:28.668Z,20.70
2019-05-22T13:11:14.936Z,20.00
2019-05-22T13:18:00.463Z,19.60
2019-05-22T13:24:46.012Z,19.40
2019-05-22T13:31:31.126Z,19.60
2019-05-22T13:38:18.030Z,19.00
2019-05-22T13:45:06.286Z,18.60
2019-05-22T13:51:51.739Z,19.00
2019-05-22T13:58:37.831Z,19.60
2019-05-22T14:05:25.796Z,19.60
2019-05-22T14:12:12.046Z,18.50
2019-05-22T14:18:57.067Z,18.50
2019-05-22T14:25:42.860Z,18.30
2019-05-22T14:32:30.046Z,18.70
2019-05-22T14:39:15.883Z,18.80
2019-05-22T14:46:01.155Z,19.30
2019-05-22T14:52:47.787Z,19.00
2019-05-22T14:59:35.230Z,19.30
2019-05-22T15:06:20.736Z,19.20
2019-05-22T15:13:06.113Z,18.40
2019-05-22T15:19:54.016Z,18.60
2019-05-22T15:26:39.250Z,19.40
2019-05-22T15:33:25.823Z,19.90
2019-05-22T15:40:11.986Z,19.50
2019-05-22T15:46:57.196Z,19.40
2019-05-22T15:53:46.028Z,19.40
2019-05-22T16:00:34.511Z,19.60
2019-05-22T16:07:21.372Z,19.30
2019-05-22T16:14:07.644Z,19.30
2019-05-22T16:20:54.511Z,19.30
2019-05-22T16:27:42.783Z,19.20
2019-05-22T16:34:30.015Z,18.90
2019-05-22T16:41:17.121Z,18.80
2019-05-22T16:48:03.473Z,19.20
2019-05-22T16:54:49.628Z,19.10
2019-05-22T17:01:56.191Z,19.00
2019-05-22T17:08:22.854Z,18.80
2019-05-22T17:15:10.811Z,18.40
2019-05-22T17:21:56.780Z,18.40
2019-05-22T17:28:41.956Z,18.30
2019-05-22T17:35:28.160Z,18.20
2019-05-22T17:42:16.455Z,18.10
2019-05-22T17:49:02.195Z,17.90
2019-05-22T17:55:48.906Z,17.60
2019-05-22T18:02:35.928Z,17.40
2019-05-22T18:09:21.351Z,17.40
2019-05-22T18:16:07.399Z,17.20
2019-05-22T18:22:52.689Z,17.00
2019-05-22T18:29:37.689Z,16.70
2019-05-22T18:36:22.781Z,16.50
2019-05-22T18:43:07.963Z,16.30
2019-05-22T18:49:53.139Z,16.00
2019-05-22T18:56:38.202Z,15.60
2019-05-22T19:03:23.458Z,15.20
2019-05-22T19:10:09.527Z,14.80
2019-05-22T19:16:54.723Z,14.40
2019-05-22T19:23:39.857Z,14.10
2019-05-22T19:30:26.319Z,13.90
2019-05-22T19:37:11.884Z,13.60
2019-05-22T19:43:57.495Z,13.20
2019-05-22T19:50:42.633Z,12.90
2019-05-22T19:57:28.027Z,12.70
2019-05-22T20:04:14.436Z,12.40
2019-05-22T20:10:59.443Z,12.10
2019-05-22T20:17:44.472Z,11.80
2019-05-22T20:24:29.958Z,11.60
2019-05-22T20:31:15.534Z,11.50
2019-05-22T20:38:01.739Z,11.30
2019-05-22T20:44:46.962Z,11.10
2019-05-22T20:51:32.290Z,11.00
2019-05-22T20:58:19.397Z,10.90
2019-05-22T21:05:12.437Z,10.80
2019-05-22T21:11:58.303Z,10.70
2019-05-22T21:18:45.610Z,10.60
2019-05-22T21:25:31.315Z,10.50
2019-05-22T21:32:17.084Z,10.30
2019-05-22T21:39:04.063Z,10.20
2019-05-22T21:45:49.390Z,9.90
2019-05-22T21:52:36.679Z,9.80
2019-05-22T21:59:21.687Z,9.70
2019-05-22T22:06:07.065Z,9.60
2019-05-22T22:12:53.601Z,9.40
2019-05-22T22:19:39.103Z,9.30
2019-05-22T22:26:26.550Z,9.20
2019-05-22T22:33:14.504Z,9.10
2019-05-22T22:40:01.584Z,9.00
2019-05-22T22:46:57.744Z,9.00
2019-05-22T22:53:43.695Z,9.00
2019-05-22T23:00:40.009Z,8.90
2019-05-22T23:07:28.875Z,8.70
2019-05-22T23:14:15.637Z,8.60
2019-05-22T23:21:00.600Z,8.50
2019-05-22T23:27:47.204Z,8.40
2019-05-22T23:34:32.565Z,8.40
2019-05-22T23:41:17.507Z,8.30
2019-05-22T23:48:07.200Z,8.20
2019-05-22T23:54:53.823Z,8.10
